• Join FlightAware (Why Join?)
  • Login
  • US Flag 
09:00PM EDT


 

Airport Tracker/Info


-or-


 

Live Flight TrackerFlight Track Log ✈ AFR1743 ✈ 02-May-2013 ✈ LSGG / GVA - LFPG / CDG

Flight Track Log - Related Links

Times and Time Zones

All times are in EDT time to prevent confusion due to time zone crossing. See the AFR1743 flight status page for this flight to view local times or setup timezone preferences in your user account.

Time Position Orientation Groundspeed Altitude Reporting Facility
EDT Latitude Longitude Course Direction KTS MPH feet Rate Location/Type
07:09AM 46.3010 6.0338 320° Northwest  Level Estimated
07:10AM 46.3638 5.9584 320° Northwest  Level Estimated
07:11AM 46.4266 5.8828 320° Northwest  Level Estimated
07:12AM 46.4894 5.8071 320° Northwest  Level Estimated
07:13AM 46.5521 5.7312 320° Northwest  Level Estimated
07:14AM 46.6148 5.6552 320° Northwest  Level Estimated
07:15AM 46.6774 5.5789 320° Northwest  Level Estimated
07:16AM 46.7399 5.5025 320° Northwest  Level Estimated
07:17AM 46.8024 5.4259 320° Northwest  Level Estimated
07:18AM 46.8649 5.3491 320° Northwest  Level Estimated
07:19AM 46.9273 5.2722 320° Northwest  Level Estimated
07:20AM 46.9897 5.1950 320° Northwest  Level Estimated
07:21AM 47.0520 5.1177 320° Northwest  Level Estimated
07:22AM 47.1142 5.0402 320° Northwest  Level Estimated
07:23AM 47.1764 4.9626 320° Northwest  Level Estimated
07:24AM 47.2385 4.8847 320° Northwest  Level Estimated
07:25AM 47.3006 4.8067 320° Northwest  Level Estimated
07:26AM 47.3543 4.7390 320° Northwest  Level Estimated
07:27AM 47.4080 4.6712 319° Northwest  Level Estimated
07:28AM 47.4616 4.6032 319° Northwest  Level Estimated
07:29AM 47.5152 4.5351 319° Northwest  Level Estimated
07:30AM 47.5687 4.4669 319° Northwest  Level Estimated
07:31AM 47.6222 4.3985 319° Northwest  Level Estimated
07:32AM 47.6756 4.3300 319° Northwest  Level Estimated
07:33AM 47.7290 4.2613 319° Northwest  Level Estimated
07:34AM 47.7824 4.1925 319° Northwest  Level Estimated
07:35AM 47.8357 4.1236 319° Northwest  Level Estimated
07:36AM 47.8890 4.0545 319° Northwest  Level Estimated
07:37AM 47.9422 3.9853 319° Northwest  Level Estimated
07:38AM 47.9954 3.9159 319° Northwest  Level Estimated
07:39AM 48.0486 3.8464 319° Northwest  Level Estimated
07:40AM 48.1017 3.7767 319° Northwest  Level Estimated
07:41AM 48.1477 3.7162 319° Northwest  Level Estimated
07:42AM 48.1937 3.6557 319° Northwest  Level Estimated
07:43AM 48.2396 3.5950 319° Northwest  Level Estimated
07:44AM 48.2855 3.5341 319° Northwest  Level Estimated
07:45AM 48.3314 3.4732 319° Northwest  Level Estimated
07:46AM 48.3773 3.4122 319° Northwest  Level Estimated
07:47AM 48.4231 3.3511 318° Northwest  Level Estimated
07:48AM 48.4688 3.2898 318° Northwest  Level Estimated
07:49AM 48.5146 3.2285 318° Northwest  Level Estimated
07:50AM 48.5603 3.1670 318° Northwest  Level Estimated
07:51AM 48.6060 3.1054 318° Northwest  Level Estimated
07:52AM 48.6516 3.0437 318° Northwest  Level Estimated
07:53AM 48.6972 2.9819 318° Northwest  Level Estimated
07:54AM 48.7428 2.9200 318° Northwest  Level Estimated
07:55AM 48.7884 2.8580 318° Northwest  Level Estimated
07:56AM 48.8354 2.7937 318° Northwest  Level Estimated
07:57AM 48.8825 2.7293 318° Northwest  Level Estimated
07:58AM 48.9295 2.6647 318° Northwest  Level Estimated
07:59AM 48.9765 2.6001 318° Northwest  Level Estimated
08:00AM 49.0128 2.5500 318° Northwest  Level Estimated
08:01AM 49.0128 2.5500 180° South  Level Estimated
08:02AM 49.0128 2.5500 180° South  Level Estimated